Time;durP1;ratioP1;P1;durP2;ratioP2;P2;SDS_P1;SDS_P2;PMS_P1;PMS_P2;Temp;Humidity;BMP_temperature;BMP_pressure;BME280_temperature;BME280_humidity;BME280_pressure;Samples;Min_cycle;Max_cycle;Signal;HPM_P1;HPM_P2
2023/08/30 00:01:16;;;;;;;22.60;13.48;;;20.10;99.90;;;;;;5057062;28;20047;-87
2023/08/30 00:03:42;;;;;;;23.27;12.45;;;20.10;99.90;;;;;;5058682;28;20029;-87
2023/08/30 00:06:08;;;;;;;27.48;13.60;;;20.10;99.90;;;;;;5064384;28;20025;-86
2023/08/30 00:08:34;;;;;;;24.15;14.07;;;20.00;99.90;;;;;;5054951;28;20451;-86
2023/08/30 00:11:01;;;;;;;26.58;12.98;;;20.00;99.90;;;;;;5071468;28;20043;-87
2023/08/30 00:13:29;;;;;;;22.00;12.50;;;20.00;99.90;;;;;;5054975;28;20029;-85
2023/08/30 00:15:55;;;;;;;25.55;12.27;;;20.00;99.90;;;;;;5054520;28;20025;-87
2023/08/30 00:18:21;;;;;;;24.40;11.65;;;20.00;99.90;;;;;;5054853;28;20021;-88
2023/08/30 00:20:47;;;;;;;23.42;12.45;;;19.80;99.90;;;;;;5056134;28;20021;-88
2023/08/30 00:23:13;;;;;;;30.73;13.10;;;19.80;99.90;;;;;;5054510;28;20119;-87
2023/08/30 00:25:39;;;;;;;23.60;13.02;;;19.70;99.90;;;;;;5054975;28;20021;-87
2023/08/30 00:28:06;;;;;;;22.80;12.68;;;19.70;99.90;;;;;;5064409;28;20025;-87
2023/08/30 00:30:32;;;;;;;24.30;13.02;;;19.70;99.90;;;;;;5063654;28;20096;-87
2023/08/30 00:32:58;;;;;;;25.08;13.38;;;19.60;99.90;;;;;;5059455;28;20053;-87
2023/08/30 00:35:23;;;;;;;21.95;12.85;;;19.60;99.90;;;;;;5056209;28;20025;-87
2023/08/30 00:37:49;;;;;;;23.35;13.98;;;19.60;99.90;;;;;;5063043;28;20352;-87
2023/08/30 00:40:15;;;;;;;28.35;13.98;;;19.50;99.90;;;;;;5060755;28;20057;-88
2023/08/30 00:42:41;;;;;;;28.45;14.48;;;19.60;99.90;;;;;;5055309;28;20045;-87
2023/08/30 00:45:07;;;;;;;24.48;14.27;;;19.60;99.90;;;;;;5054142;28;20086;-87
2023/08/30 00:47:33;;;;;;;23.50;13.32;;;19.50;99.90;;;;;;5063920;28;20035;-87
2023/08/30 00:50:00;;;;;;;19.88;10.88;;;19.50;99.90;;;;;;5067851;28;20047;-87
2023/08/30 00:52:26;;;;;;;20.83;10.88;;;19.50;99.90;;;;;;5063458;28;20024;-87
2023/08/30 00:54:52;;;;;;;19.50;10.70;;;19.50;99.90;;;;;;5061401;28;20025;-86
2023/08/30 00:57:17;;;;;;;28.60;11.32;;;19.40;99.90;;;;;;5054279;28;20048;-87
2023/08/30 00:59:43;;;;;;;26.02;10.27;;;19.40;99.90;;;;;;5059232;28;20111;-87
2023/08/30 01:02:09;;;;;;;30.05;9.77;;;19.40;99.90;;;;;;5063747;28;20063;-87
2023/08/30 01:04:35;;;;;;;19.23;9.68;;;19.30;99.90;;;;;;5068279;28;20029;-86
2023/08/30 01:07:01;;;;;;;18.30;9.27;;;19.30;99.90;;;;;;5057624;28;20033;-87
2023/08/30 01:09:27;;;;;;;17.80;9.15;;;19.40;99.90;;;;;;5067260;28;20031;-87
2023/08/30 01:12:20;;;;;;;22.13;8.90;;;19.40;99.90;;;;;;5070853;28;20025;-87
2023/08/30 01:14:48;;;;;;;18.02;9.73;;;19.40;99.90;;;;;;5077438;28;20466;-87
2023/08/30 01:17:16;;;;;;;15.18;9.27;;;19.30;99.90;;;;;;5077111;28;20028;-87
2023/08/30 01:19:53;;;;;;;21.65;9.68;;;19.30;99.90;;;;;;5076600;28;20447;-87
2023/08/30 01:22:40;;;;;;;22.17;8.77;;;19.30;99.90;;;;;;5078014;28;20029;-87
2023/08/30 01:25:14;;;;;;;14.85;9.02;;;19.30;99.90;;;;;;5076667;28;20462;-88
2023/08/30 01:27:42;;;;;;;19.65;8.27;;;19.30;99.90;;;;;;5076994;28;20078;-87
2023/08/30 01:30:10;;;;;;;19.20;8.38;;;19.20;99.90;;;;;;5058571;28;20021;-87
2023/08/30 01:32:38;;;;;;;15.02;8.43;;;19.30;99.90;;;;;;5089806;28;20020;-88
2023/08/30 01:35:05;;;;;;;18.15;8.63;;;19.30;99.90;;;;;;5087491;28;20029;-87
2023/08/30 01:37:32;;;;;;;14.10;7.35;;;19.30;99.90;;;;;;5087631;28;20028;-87
2023/08/30 01:39:58;;;;;;;18.67;7.65;;;19.20;99.90;;;;;;5076777;28;20024;-86
2023/08/30 01:42:27;;;;;;;19.95;8.55;;;19.20;99.90;;;;;;5062610;28;20047;-86
2023/08/30 16:11:39;;;;;;;6.95;2.65;;;;;;;;;;5165664;27;20444;-90
2023/08/30 16:14:06;;;;;;;6.30;3.60;;;;;;;;;;5116772;28;20027;-87
2023/08/30 16:16:35;;;;;;;8.68;3.63;;;;;;;;;;5122217;28;20358;-90
2023/08/30 16:19:01;;;;;;;7.22;3.90;;;;;;;;;;5121905;27;20449;-88
2023/08/30 16:21:27;;;;;;;11.88;5.47;;;;;;;;;;5109818;28;20028;-88
2023/08/30 16:23:53;;;;;;;9.95;4.55;;;;;;;;;;5111617;28;20016;-88
2023/08/30 16:26:20;;;;;;;10.85;4.78;;;;;;;;;;5118872;28;20022;-89
2023/08/30 16:28:46;;;;;;;14.35;4.75;;;;;;;;;;5130063;28;20372;-87
2023/08/30 16:31:12;;;;;;;13.00;4.82;;;;;;;;;;5113081;28;20028;-86
2023/08/30 16:33:39;;;;;;;13.80;5.00;;;;;;;;;;5109696;28;20016;-88
2023/08/30 16:36:06;;;;;;;10.93;4.38;;;;;;;;;;5108960;28;20032;-87
2023/08/30 16:38:33;;;;;;;11.25;4.70;;;;;;;;;;5116800;28;20020;-87
2023/08/30 16:41:03;;;;;;;13.48;4.80;;;;;;;;;;5109911;28;20615;-89
2023/08/30 16:43:30;;;;;;;7.28;4.65;;;;;;;;;;5111954;28;20351;-88
2023/08/30 16:45:57;;;;;;;8.85;4.50;;;;;;;;;;5109357;28;20373;-90
2023/08/30 16:48:26;;;;;;;8.90;4.53;;;;;;;;;;5108762;28;20039;-91
2023/08/30 16:50:58;;;;;;;11.25;4.65;;;;;;;;;;5114839;28;20027;-90
2023/08/30 16:53:27;;;;;;;19.40;5.60;;;;;;;;;;5109695;28;20028;-91
2023/08/30 16:55:56;;;;;;;8.35;4.95;;;;;;;;;;5110859;28;20030;-89
2023/08/30 16:58:24;;;;;;;13.32;5.88;;;;;;;;;;5115756;28;20027;-91
2023/08/30 17:00:51;;;;;;;8.50;4.60;;;;;;;;;;5108812;28;20056;-90
2023/08/30 17:03:17;;;;;;;6.68;4.57;;;;;;;;;;5113252;28;20019;-90
2023/08/30 17:05:43;;;;;;;11.45;4.43;;;;;;;;;;5129825;27;20046;-88
2023/08/30 17:08:10;;;;;;;6.90;4.40;;;;;;;;;;5111135;28;20107;-89
2023/08/30 17:10:36;;;;;;;6.75;4.30;;;;;;;;;;5144369;27;20481;-87
2023/08/30 17:13:02;;;;;;;8.63;4.22;;;;;;;;;;5125560;28;20051;-89
2023/08/30 17:15:28;;;;;;;8.40;3.97;;;;;;;;;;5107970;28;20227;-90
2023/08/30 17:17:54;;;;;;;5.95;3.88;;;;;;;;;;5114209;28;20099;-89
2023/08/30 17:20:21;;;;;;;8.63;4.47;;;;;;;;;;5131917;27;20068;-90
2023/08/30 17:22:47;;;;;;;9.32;3.80;;;;;;;;;;5114366;28;20034;-89
2023/08/30 17:25:16;;;;;;;10.50;5.22;;;;;;;;;;5112122;28;20043;-89
2023/08/30 17:27:42;;;;;;;16.35;6.22;;;;;;;;;;5113954;28;20016;-88
2023/08/30 17:33:12;;;;;;;11.23;4.53;;;24.80;67.10;;;;;;5113634;27;20035;-90
2023/08/30 17:35:41;;;;;;;9.73;4.53;;;24.40;69.00;;;;;;5096940;28;20354;-91
2023/08/30 17:38:06;;;;;;;7.53;4.00;;;24.30;70.40;;;;;;5096362;28;20039;-89
2023/08/30 17:40:36;;;;;;;15.30;4.43;;;24.20;70.60;;;;;;5102146;28;20035;-87
2023/08/30 17:43:02;;;;;;;9.15;3.40;;;24.00;70.60;;;;;;5105006;27;20027;-88
2023/08/30 17:45:32;;;;;;;8.13;4.15;;;24.00;70.50;;;;;;5117218;27;20065;-88
2023/08/30 17:48:00;;;;;;;10.38;4.18;;;24.00;70.40;;;;;;5117028;27;20126;-89
2023/08/30 17:50:26;;;;;;;7.10;4.22;;;24.00;70.60;;;;;;5112198;27;20031;-89
2023/08/30 17:52:53;;;;;;;9.93;4.72;;;24.00;71.70;;;;;;5097434;28;20072;-88
2023/08/30 17:55:19;;;;;;;7.90;5.43;;;23.90;72.30;;;;;;5100137;28;20361;-89
2023/08/30 17:57:45;;;;;;;7.32;4.78;;;23.90;72.00;;;;;;5093992;28;20023;-90
2023/08/30 18:00:14;;;;;;;11.25;4.78;;;23.90;73.50;;;;;;5094283;28;20035;-89
2023/08/30 18:03:07;;;;;;;12.50;4.70;;;23.80;74.20;;;;;;5093771;28;20019;-91
2023/08/30 18:05:33;;;;;;;15.57;4.75;;;23.70;74.00;;;;;;5093050;28;20024;-88
2023/08/30 18:08:00;;;;;;;9.65;5.18;;;23.70;74.30;;;;;;5093281;28;20097;-87
2023/08/30 18:10:26;;;;;;;8.82;5.13;;;23.60;74.50;;;;;;5095235;28;20047;-87
2023/08/30 18:12:52;;;;;;;9.73;5.07;;;23.60;75.00;;;;;;5093131;28;20357;-88
2023/08/30 18:15:18;;;;;;;16.05;5.38;;;23.60;75.60;;;;;;5097001;28;20089;-89
2023/08/30 18:17:44;;;;;;;8.38;4.95;;;23.50;75.90;;;;;;5094416;28;20035;-90
2023/08/30 18:20:14;;;;;;;15.15;4.78;;;23.40;76.90;;;;;;5111965;28;20031;-90
2023/08/30 18:22:42;;;;;;;14.90;5.22;;;23.30;77.80;;;;;;5116006;28;20023;-88
2023/08/30 18:27:30;;;;;;;9.13;5.05;;;23.30;79.40;;;;;;5050528;28;20388;-88
2023/08/30 18:30:09;;;;;;;11.32;4.28;;;23.00;83.80;;;;;;5049500;28;20053;-87
2023/08/30 18:32:35;;;;;;;7.63;4.88;;;22.40;94.60;;;;;;5031275;28;20080;-86
2023/08/30 18:35:01;;;;;;;8.57;3.90;;;22.40;95.40;;;;;;5049083;28;20028;-84
2023/08/30 18:52:18;;;;;;;7.43;2.85;;;20.30;99.90;;;;;;5115124;27;20811;-87
2023/08/30 18:54:46;;;;;;;3.10;1.98;;;19.60;99.90;;;;;;5092550;28;20432;-90
